createdAt,value
2023-03-27T00:02:18.569Z,10.30
2023-03-27T00:04:45.765Z,10.10
2023-03-27T00:07:13.299Z,9.70
2023-03-27T00:09:40.154Z,9.80
2023-03-27T00:12:10.558Z,10.50
2023-03-27T00:14:41.978Z,10.80
2023-03-27T00:17:10.562Z,11.00
2023-03-27T00:19:45.502Z,11.80
2023-03-27T00:22:16.473Z,11.00
2023-03-27T00:24:43.334Z,11.20
2023-03-27T00:27:13.701Z,12.80
2023-03-27T00:29:40.800Z,12.30
2023-03-27T00:34:54.091Z,13.40
2023-03-27T00:37:22.996Z,14.70
2023-03-27T00:39:52.031Z,15.50
2023-03-27T00:42:23.044Z,15.50
2023-03-27T00:44:52.806Z,15.50
2023-03-27T00:47:39.036Z,17.40
2023-03-27T00:50:15.969Z,15.50
2023-03-27T00:52:44.855Z,16.60
2023-03-27T00:55:15.010Z,17.10
2023-03-27T00:57:44.697Z,15.70
2023-03-27T01:00:14.793Z,17.50
2023-03-27T01:03:05.188Z,16.50
2023-03-27T01:05:37.256Z,16.80
2023-03-27T01:08:05.806Z,17.30
2023-03-27T01:11:02.427Z,17.00
2023-03-27T01:14:02.627Z,17.30
2023-03-27T01:16:55.211Z,17.00
2023-03-27T01:19:52.095Z,17.40
2023-03-27T01:22:33.498Z,16.80
2023-03-27T01:25:04.936Z,18.60
2023-03-27T01:27:41.894Z,19.50
2023-03-27T01:30:19.236Z,19.20
2023-03-27T01:33:08.645Z,17.50
2023-03-27T01:35:48.453Z,19.10
2023-03-27T01:38:33.625Z,17.20
2023-03-27T01:41:04.821Z,18.50
2023-03-27T01:43:42.472Z,17.00
2023-03-27T01:46:26.845Z,17.60
2023-03-27T01:49:14.966Z,18.20
2023-03-27T01:51:49.559Z,18.80
2023-03-27T01:54:31.100Z,19.90
2023-03-27T01:57:31.570Z,20.40
2023-03-27T02:00:18.265Z,21.10
2023-03-27T02:02:58.097Z,20.80
2023-03-27T02:05:39.136Z,21.10
2023-03-27T02:08:15.762Z,22.20
2023-03-27T02:10:46.960Z,17.60
2023-03-27T02:13:22.137Z,19.10
2023-03-27T02:15:51.157Z,19.00
2023-03-27T02:18:24.217Z,18.90
2023-03-27T02:20:53.256Z,19.90
2023-03-27T02:23:23.256Z,19.40
2023-03-27T02:25:55.725Z,21.80
2023-03-27T02:28:47.142Z,19.50
2023-03-27T02:34:23.684Z,20.20
2023-03-27T02:37:32.428Z,20.90
2023-03-27T02:40:40.350Z,20.50
2023-03-27T02:43:32.065Z,20.90
2023-03-27T02:46:27.538Z,22.70
2023-03-27T02:49:04.189Z,18.80
2023-03-27T02:51:57.168Z,18.50
2023-03-27T02:54:28.803Z,18.20
2023-03-27T02:57:01.907Z,21.50
2023-03-27T02:59:49.847Z,18.50
2023-03-27T03:02:29.409Z,17.50
2023-03-27T03:05:12.948Z,17.80
2023-03-27T03:07:46.429Z,18.60
2023-03-27T03:10:16.213Z,17.90
2023-03-27T03:12:45.549Z,18.80
2023-03-27T03:15:17.324Z,18.80
2023-03-27T03:17:47.934Z,17.60
2023-03-27T03:22:50.042Z,15.50
2023-03-27T03:25:31.620Z,17.60
2023-03-27T03:28:00.989Z,18.20
2023-03-27T03:30:30.512Z,19.20
2023-03-27T03:33:20.281Z,21.40
2023-03-27T03:35:51.629Z,19.80
2023-03-27T03:38:29.966Z,19.00
2023-03-27T03:41:08.108Z,19.20
2023-03-27T03:43:38.057Z,18.40
2023-03-27T03:46:06.704Z,21.60
2023-03-27T03:48:35.999Z,32.10
2023-03-27T03:51:13.950Z,34.50
2023-03-27T03:53:43.714Z,24.20
2023-03-27T03:56:15.317Z,28.40
2023-03-27T03:58:48.115Z,31.40
2023-03-27T04:01:20.775Z,32.30
2023-03-27T04:03:54.084Z,31.30
2023-03-27T04:06:26.554Z,27.70
2023-03-27T04:09:03.213Z,24.10
2023-03-27T04:11:53.715Z,19.60
2023-03-27T04:14:43.895Z,22.70
2023-03-27T04:17:33.906Z,20.30
2023-03-27T04:20:08.633Z,19.80
2023-03-27T04:22:39.561Z,20.00
2023-03-27T04:25:13.904Z,21.10
2023-03-27T04:27:46.631Z,23.00
2023-03-27T04:30:26.762Z,22.60
2023-03-27T04:33:18.649Z,23.70
2023-03-27T04:36:07.636Z,26.90
2023-03-27T04:38:45.856Z,25.10
2023-03-27T04:41:29.850Z,24.50
2023-03-27T04:44:02.959Z,25.80
2023-03-27T04:46:34.953Z,28.90
2023-03-27T04:49:09.444Z,30.90
2023-03-27T04:51:59.017Z,35.30
2023-03-27T04:54:37.231Z,33.40
2023-03-27T04:57:08.816Z,32.50
2023-03-27T04:59:40.643Z,32.90
2023-03-27T05:02:43.141Z,30.20
2023-03-27T05:05:17.493Z,33.60
2023-03-27T05:07:57.304Z,35.90
2023-03-27T05:10:26.651Z,36.70
2023-03-27T05:12:57.865Z,36.40
2023-03-27T05:15:32.525Z,34.00
2023-03-27T05:18:05.612Z,32.20
2023-03-27T05:20:37.931Z,31.20
2023-03-27T05:23:11.029Z,31.80
2023-03-27T05:25:39.917Z,33.60
2023-03-27T05:28:15.451Z,33.40
2023-03-27T05:30:51.609Z,33.10
2023-03-27T05:33:36.434Z,33.20
2023-03-27T05:42:27.809Z,27.40
2023-03-27T05:44:59.363Z,26.20
2023-03-27T05:47:49.884Z,25.90
2023-03-27T05:50:20.662Z,24.80
2023-03-27T05:52:56.809Z,23.10
2023-03-27T05:55:31.619Z,23.80
2023-03-27T05:58:01.329Z,24.30
2023-03-27T06:00:34.790Z,24.40
2023-03-27T06:03:05.990Z,24.20
2023-03-27T06:06:36.744Z,23.20
2023-03-27T06:09:11.058Z,24.70
2023-03-27T06:11:52.564Z,19.60
2023-03-27T06:14:26.048Z,17.20
2023-03-27T06:17:15.336Z,20.60
2023-03-27T06:19:53.851Z,18.60
2023-03-27T06:22:23.558Z,17.80
2023-03-27T06:24:54.026Z,17.90
2023-03-27T06:27:22.651Z,19.80
2023-03-27T06:29:51.893Z,18.10
2023-03-27T10:07:33.027Z,4.40
2023-03-27T10:10:31.563Z,4.70
2023-03-27T10:13:09.596Z,6.30
2023-03-27T10:15:42.748Z,6.10
2023-03-27T10:18:27.992Z,5.90
2023-03-27T10:21:35.037Z,4.30
2023-03-27T10:24:17.396Z,3.80
2023-03-27T10:27:27.438Z,3.80
2023-03-27T10:30:32.915Z,2.90
2023-03-27T10:33:40.055Z,3.70
2023-03-27T10:36:40.268Z,3.60
2023-03-27T10:39:14.904Z,3.50
2023-03-27T10:42:06.351Z,3.60
2023-03-27T10:44:33.409Z,3.20
2023-03-27T10:47:00.429Z,2.30
2023-03-27T10:49:43.649Z,3.00
2023-03-27T10:52:28.978Z,2.50
2023-03-27T10:55:15.705Z,2.90
2023-03-27T10:57:54.275Z,3.00
2023-03-27T11:00:35.167Z,2.90
2023-03-27T11:03:14.781Z,2.60
2023-03-27T11:05:46.699Z,2.60
2023-03-27T11:08:32.737Z,3.10
2023-03-27T11:11:09.153Z,2.70
2023-03-27T11:13:41.157Z,3.70
2023-03-27T11:16:40.962Z,2.30
2023-03-27T11:19:43.198Z,2.00
2023-03-27T11:22:40.463Z,1.80
2023-03-27T11:25:11.955Z,1.70
2023-03-27T11:28:04.441Z,2.00
2023-03-27T11:30:32.024Z,1.90
2023-03-27T11:33:05.660Z,1.70
2023-03-27T11:35:48.564Z,2.50
2023-03-27T11:39:20.410Z,1.90
2023-03-27T11:44:25.320Z,2.10
2023-03-27T11:47:31.393Z,1.60
2023-03-27T11:50:12.245Z,1.60
2023-03-27T11:53:08.462Z,1.90
2023-03-27T11:56:09.880Z,1.70
2023-03-27T11:58:58.287Z,1.70
2023-03-27T12:01:45.054Z,1.80
2023-03-27T12:04:40.089Z,2.00
2023-03-27T12:07:49.432Z,2.60
2023-03-27T12:10:32.032Z,2.50
2023-03-27T12:13:42.038Z,2.90
2023-03-27T12:16:45.704Z,2.40
2023-03-27T12:19:45.866Z,2.30
2023-03-27T12:22:43.210Z,2.40
2023-03-27T12:25:49.632Z,2.00
2023-03-27T12:32:03.854Z,1.70
2023-03-27T12:34:59.368Z,0.60
2023-03-27T12:37:44.402Z,0.90
2023-03-27T12:40:28.988Z,1.70
2023-03-27T12:43:24.112Z,2.50
2023-03-27T12:46:11.670Z,2.20
2023-03-27T12:48:58.137Z,1.60
2023-03-27T12:51:51.372Z,1.50
2023-03-27T12:54:38.200Z,1.20
2023-03-27T12:57:30.676Z,0.90
2023-03-27T12:59:59.249Z,0.60
2023-03-27T13:03:09.128Z,0.70
2023-03-27T13:06:07.658Z,0.80
2023-03-27T13:08:39.320Z,0.90
2023-03-27T13:11:16.920Z,1.00
2023-03-27T13:14:27.201Z,1.80
2023-03-27T13:17:06.453Z,1.90
2023-03-27T13:20:07.543Z,2.10
2023-03-27T13:22:48.863Z,2.20
2023-03-27T13:26:01.030Z,1.90
2023-03-27T13:28:39.045Z,1.70
2023-03-27T13:31:35.369Z,1.70
2023-03-27T13:34:41.558Z,1.90
2023-03-27T13:37:13.672Z,0.50
2023-03-27T13:39:55.262Z,0.80
2023-03-27T13:42:36.512Z,1.60
2023-03-27T13:47:48.050Z,0.60
2023-03-27T13:50:42.735Z,0.60
2023-03-27T13:53:24.635Z,0.40
2023-03-27T13:56:16.881Z,0.60
2023-03-27T13:59:40.254Z,0.60
2023-03-27T14:02:38.712Z,5.60
2023-03-27T14:05:12.303Z,1.00
2023-03-27T14:08:05.813Z,0.40
2023-03-27T14:11:01.690Z,0.60
2023-03-27T14:13:56.785Z,0.80
2023-03-27T14:16:55.548Z,0.70
2023-03-27T14:19:29.457Z,0.80
2023-03-27T14:21:59.838Z,0.90
2023-03-27T14:24:43.974Z,0.50
2023-03-27T14:27:22.524Z,4.20
2023-03-27T14:30:16.373Z,2.80
2023-03-27T14:32:49.526Z,0.80
2023-03-27T14:35:32.653Z,0.50
2023-03-27T14:38:13.605Z,0.50
2023-03-27T14:40:47.203Z,1.50
2023-03-27T14:43:18.661Z,0.60
2023-03-27T14:45:52.231Z,0.70
2023-03-27T14:48:52.023Z,0.90
2023-03-27T14:51:34.190Z,0.90
2023-03-27T14:54:04.873Z,1.60
2023-03-27T14:56:46.943Z,2.40
2023-03-27T14:59:54.702Z,6.20
2023-03-27T15:02:38.340Z,1.30
2023-03-27T15:05:16.188Z,1.50
2023-03-27T15:07:49.106Z,0.80
2023-03-27T15:10:31.251Z,1.30
2023-03-27T15:13:13.019Z,0.90
2023-03-27T15:15:46.480Z,3.50
2023-03-27T15:18:16.550Z,1.90
2023-03-27T15:20:43.672Z,6.40
2023-03-27T15:23:33.132Z,5.70
2023-03-27T15:26:04.809Z,2.90
2023-03-27T15:28:41.894Z,2.10
2023-03-27T15:31:14.643Z,1.20
2023-03-27T15:33:55.436Z,1.60
2023-03-27T15:36:30.190Z,1.50
2023-03-27T15:39:03.557Z,2.00
2023-03-27T15:41:32.043Z,10.90
2023-03-27T15:44:08.753Z,8.00
2023-03-27T15:46:57.598Z,6.40
2023-03-27T15:49:30.311Z,3.70
2023-03-27T15:52:27.885Z,1.40
2023-03-27T15:54:55.312Z,2.90
2023-03-27T15:57:22.463Z,3.80
2023-03-27T15:59:52.148Z,4.10
2023-03-27T16:02:21.049Z,4.60
2023-03-27T16:04:54.722Z,5.80
2023-03-27T16:07:41.937Z,6.00
2023-03-27T16:10:10.525Z,5.60
2023-03-27T16:13:00.492Z,6.40
2023-03-27T16:15:38.101Z,6.80
2023-03-27T16:18:21.509Z,6.30
2023-03-27T16:20:48.677Z,8.10
2023-03-27T16:23:19.417Z,7.00
2023-03-27T16:26:10.038Z,24.10
2023-03-27T16:28:38.306Z,16.30
2023-03-27T16:31:12.636Z,18.20
2023-03-27T16:34:44.784Z,12.90
2023-03-27T16:37:25.049Z,8.50
2023-03-27T16:40:07.295Z,9.00
2023-03-27T16:42:49.464Z,8.80
2023-03-27T16:48:05.958Z,8.50
2023-03-27T16:50:37.451Z,9.90
2023-03-27T16:53:04.613Z,8.50
2023-03-27T16:55:31.490Z,9.30
2023-03-27T16:57:58.878Z,10.10
2023-03-27T17:00:26.527Z,10.70
2023-03-27T17:02:53.709Z,10.00
2023-03-27T17:05:21.042Z,8.70
2023-03-27T17:07:50.001Z,8.40
2023-03-27T17:10:27.920Z,8.90
2023-03-27T17:12:56.438Z,10.40
2023-03-27T17:15:23.914Z,9.60
2023-03-27T17:17:52.943Z,9.70
2023-03-27T17:20:20.100Z,9.90
2023-03-27T17:22:47.041Z,9.30
2023-03-27T17:25:15.333Z,10.40
2023-03-27T17:27:42.995Z,9.70
2023-03-27T17:30:10.578Z,10.80
2023-03-27T17:32:46.349Z,10.10
2023-03-27T17:35:13.257Z,10.90
2023-03-27T17:37:47.663Z,11.40
2023-03-27T17:40:38.706Z,11.20
2023-03-27T17:43:05.672Z,10.60
2023-03-27T17:45:33.692Z,10.40
2023-03-27T17:48:00.644Z,11.00
2023-03-27T17:50:27.586Z,11.40
2023-03-27T17:52:55.102Z,10.60
2023-03-27T17:55:22.033Z,14.40
2023-03-27T17:58:02.101Z,14.40
2023-03-27T18:03:03.477Z,11.40
2023-03-27T18:05:33.071Z,11.10
2023-03-27T18:08:00.255Z,10.60
2023-03-27T18:10:31.561Z,11.20
2023-03-27T18:13:03.169Z,11.90
2023-03-27T18:15:30.772Z,13.10
2023-03-27T18:17:59.044Z,12.50
2023-03-27T18:20:26.797Z,12.60
2023-03-27T18:22:56.361Z,9.00
2023-03-27T18:25:26.165Z,8.40
2023-03-27T18:27:53.178Z,9.10
2023-03-27T18:30:20.512Z,9.40
2023-03-27T18:32:48.244Z,10.60
2023-03-27T18:35:19.055Z,9.50
2023-03-27T18:37:46.444Z,8.10
2023-03-27T18:40:15.024Z,9.40
2023-03-27T18:43:01.726Z,10.10
2023-03-27T18:45:29.018Z,9.50
2023-03-27T18:47:55.967Z,8.20
2023-03-27T18:50:22.957Z,9.00
2023-03-27T18:52:50.120Z,7.40
2023-03-27T18:55:17.982Z,8.00
2023-03-27T18:57:45.582Z,7.90
2023-03-27T19:00:17.794Z,7.80
2023-03-27T19:02:47.439Z,7.80
2023-03-27T19:05:15.676Z,9.00
2023-03-27T19:07:44.391Z,11.50
2023-03-27T19:10:13.467Z,14.30
2023-03-27T19:12:40.530Z,14.40
2023-03-27T19:15:33.835Z,14.70
2023-03-27T19:18:27.821Z,15.70
2023-03-27T19:21:15.221Z,12.80
2023-03-27T19:23:48.992Z,13.00
2023-03-27T19:26:21.459Z,13.70
2023-03-27T19:31:37.818Z,15.00
2023-03-27T19:34:05.630Z,16.50
2023-03-27T19:36:32.702Z,16.40
2023-03-27T19:38:59.926Z,15.90
2023-03-27T19:41:27.238Z,16.10
2023-03-27T19:43:54.256Z,14.90
2023-03-27T19:46:24.007Z,13.70
2023-03-27T19:48:53.349Z,12.70
2023-03-27T19:51:44.394Z,11.30
2023-03-27T19:54:16.187Z,11.60
2023-03-27T19:56:43.503Z,10.80
2023-03-27T19:59:17.857Z,11.60
2023-03-27T20:01:53.846Z,9.20
2023-03-27T20:04:21.696Z,10.80
2023-03-27T20:06:56.851Z,8.80
2023-03-27T20:09:24.689Z,8.50
2023-03-27T20:11:57.213Z,8.50
2023-03-27T20:14:28.248Z,9.20
2023-03-27T20:16:56.098Z,12.60
2023-03-27T20:19:34.355Z,15.90
2023-03-27T20:22:11.264Z,21.40
2023-03-27T20:24:41.819Z,26.20
2023-03-27T20:27:08.943Z,33.00
2023-03-27T20:29:40.362Z,34.30
2023-03-27T20:32:08.884Z,34.60
2023-03-27T20:34:37.270Z,37.80
2023-03-27T20:37:11.370Z,37.00
2023-03-27T20:40:01.316Z,38.30
2023-03-27T20:42:30.342Z,39.10
2023-03-27T20:44:57.823Z,41.30
2023-03-27T20:47:25.443Z,39.50
2023-03-27T20:49:52.929Z,38.70
2023-03-27T20:52:22.183Z,40.10
2023-03-27T20:54:49.371Z,42.20
2023-03-27T20:57:17.706Z,44.90
2023-03-27T20:59:54.278Z,47.80
2023-03-27T21:02:21.857Z,47.20
2023-03-27T21:04:49.476Z,47.10
2023-03-27T21:07:16.615Z,47.40
2023-03-27T21:09:45.654Z,48.50
2023-03-27T21:12:13.038Z,45.70
2023-03-27T21:14:58.524Z,48.30
2023-03-27T21:17:36.118Z,41.90
2023-03-27T21:20:08.469Z,41.20
2023-03-27T21:22:39.742Z,36.80
2023-03-27T21:25:09.316Z,27.10
2023-03-27T21:27:36.608Z,20.80
2023-03-27T21:30:05.977Z,14.60
2023-03-27T21:32:33.774Z,10.30
2023-03-27T21:35:09.148Z,9.60
2023-03-27T21:38:02.131Z,8.00
2023-03-27T21:40:31.230Z,7.50
2023-03-27T21:43:09.428Z,7.30
2023-03-27T21:45:37.303Z,6.80
2023-03-27T21:48:05.830Z,7.50
2023-03-27T21:50:33.646Z,7.10
2023-03-27T21:53:02.093Z,10.00
2023-03-27T21:55:31.614Z,8.50
2023-03-27T21:57:59.017Z,7.30
2023-03-27T22:00:26.710Z,7.10
2023-03-27T22:03:02.424Z,7.70
2023-03-27T22:05:29.396Z,6.40
2023-03-27T22:07:57.279Z,6.50
2023-03-27T22:10:24.788Z,6.60
2023-03-27T22:12:52.086Z,6.60
2023-03-27T22:15:22.556Z,7.30
2023-03-27T22:17:51.829Z,6.70
2023-03-27T22:20:19.279Z,7.50
2023-03-27T22:23:41.104Z,6.40
2023-03-27T22:26:09.442Z,7.20
2023-03-27T22:28:42.523Z,7.00
2023-03-27T22:31:10.913Z,7.50
2023-03-27T22:33:39.624Z,7.40
2023-03-27T22:36:11.183Z,7.20
2023-03-27T22:38:40.366Z,7.70
2023-03-27T22:41:11.279Z,7.90
2023-03-27T22:43:40.429Z,7.70
2023-03-27T22:46:13.898Z,9.00
2023-03-27T22:48:43.781Z,8.00
2023-03-27T22:51:12.573Z,9.80
2023-03-27T22:53:45.168Z,11.20
2023-03-27T22:56:13.760Z,11.40
2023-03-27T22:58:42.525Z,12.40
2023-03-27T23:01:11.074Z,13.90
2023-03-27T23:03:39.832Z,13.50
2023-03-27T23:06:18.373Z,14.20
2023-03-27T23:08:48.721Z,15.00
2023-03-27T23:11:17.255Z,13.90
2023-03-27T23:13:49.797Z,12.40
2023-03-27T23:16:18.372Z,15.60
2023-03-27T23:18:46.949Z,16.10
2023-03-27T23:21:18.234Z,17.60
2023-03-27T23:23:48.771Z,19.10
2023-03-27T23:26:18.394Z,18.30
2023-03-27T23:28:47.859Z,17.10
2023-03-27T23:31:18.031Z,15.70
2023-03-27T23:33:47.718Z,16.10
2023-03-27T23:36:25.108Z,19.20
2023-03-27T23:38:54.085Z,17.50
2023-03-27T23:41:22.289Z,17.70
2023-03-27T23:43:51.138Z,16.80
2023-03-27T23:46:19.889Z,13.90
2023-03-27T23:48:49.549Z,12.20
2023-03-27T23:51:18.383Z,12.70
2023-03-27T23:53:48.749Z,11.10
2023-03-27T23:56:17.130Z,9.40
2023-03-27T23:58:45.799Z,8.60
